createdAt,value
2022-10-08T00:01:43.100Z,13.05
2022-10-08T00:04:12.569Z,13.01
2022-10-08T00:06:40.829Z,13.04
2022-10-08T00:09:09.165Z,13.08
2022-10-08T00:11:41.026Z,13.10
2022-10-08T00:14:10.368Z,13.11
2022-10-08T00:16:40.817Z,13.10
2022-10-08T00:19:12.055Z,13.19
2022-10-08T00:21:42.030Z,13.21
2022-10-08T00:24:12.313Z,13.22
2022-10-08T00:26:44.082Z,13.23
2022-10-08T00:29:14.302Z,13.21
2022-10-08T00:31:45.466Z,13.24
2022-10-08T00:34:16.000Z,13.25
2022-10-08T00:36:44.815Z,13.24
2022-10-08T00:39:15.209Z,13.26
2022-10-08T00:41:49.092Z,13.18
2022-10-08T00:44:51.428Z,13.00
2022-10-08T00:47:23.955Z,12.88
2022-10-08T00:49:55.454Z,12.79
2022-10-08T00:52:26.376Z,12.71
2022-10-08T00:54:54.575Z,12.61
2022-10-08T00:57:24.578Z,12.52
2022-10-08T00:59:52.813Z,12.48
2022-10-08T01:02:20.990Z,12.47
2022-10-08T01:04:50.474Z,12.43
2022-10-08T01:07:24.415Z,12.41
2022-10-08T01:10:01.034Z,12.34
2022-10-08T01:12:41.621Z,12.34
2022-10-08T01:15:23.528Z,12.37
2022-10-08T01:18:03.005Z,12.33
2022-10-08T01:20:45.308Z,12.33
2022-10-08T01:23:30.437Z,12.33
2022-10-08T01:26:09.776Z,12.32
2022-10-08T01:28:43.603Z,12.30
2022-10-08T01:31:19.221Z,12.29
2022-10-08T01:33:55.827Z,12.31
2022-10-08T01:36:25.815Z,12.25
2022-10-08T01:38:58.936Z,12.21
2022-10-08T01:41:29.506Z,12.22
2022-10-08T01:44:05.449Z,12.16
2022-10-08T01:46:35.383Z,12.15
2022-10-08T01:49:08.311Z,12.17
2022-10-08T01:51:41.944Z,12.15
2022-10-08T01:54:15.376Z,12.16
2022-10-08T01:56:45.877Z,12.20
2022-10-08T01:59:19.563Z,12.21
2022-10-08T02:01:55.516Z,12.17
2022-10-08T02:04:37.606Z,12.15
2022-10-08T02:07:08.845Z,12.13
2022-10-08T02:09:38.862Z,12.08
2022-10-08T02:12:07.712Z,11.97
2022-10-08T02:14:39.490Z,11.89
2022-10-08T02:17:19.662Z,11.88
2022-10-08T02:19:54.432Z,11.86
2022-10-08T02:22:26.069Z,11.78
2022-10-08T02:25:00.158Z,11.70
2022-10-08T02:27:35.544Z,11.66
2022-10-08T02:30:09.944Z,11.64
2022-10-08T02:32:44.076Z,11.66
2022-10-08T02:35:19.309Z,11.62
2022-10-08T02:37:57.507Z,11.66
2022-10-08T02:40:27.246Z,11.75
2022-10-08T02:43:01.128Z,11.78
2022-10-08T02:45:35.667Z,11.78
2022-10-08T02:48:09.672Z,11.72
2022-10-08T02:50:42.996Z,11.68
2022-10-08T02:53:14.670Z,11.64
2022-10-08T02:55:50.350Z,11.62
2022-10-08T02:58:18.917Z,11.62
2022-10-08T03:00:54.741Z,11.61
2022-10-08T03:03:29.816Z,11.58
2022-10-08T03:05:59.125Z,11.56
2022-10-08T03:08:27.769Z,11.52
2022-10-08T03:10:56.393Z,11.48
2022-10-08T03:13:25.467Z,11.45
2022-10-08T03:15:56.143Z,11.46
2022-10-08T03:18:26.052Z,11.38
2022-10-08T03:20:56.043Z,11.40
2022-10-08T03:23:25.411Z,11.36
2022-10-08T03:25:53.576Z,11.33
2022-10-08T03:28:24.468Z,11.30
2022-10-08T03:30:52.638Z,11.32
2022-10-08T03:33:22.170Z,11.33
2022-10-08T03:35:50.441Z,11.20
2022-10-08T03:38:18.582Z,11.29
2022-10-08T03:40:55.778Z,11.16
2022-10-08T03:43:24.562Z,11.13
2022-10-08T03:45:53.442Z,11.01
2022-10-08T03:48:24.003Z,11.04
2022-10-08T03:50:53.760Z,10.99
2022-10-08T03:53:22.157Z,10.96
2022-10-08T03:55:51.261Z,10.92
2022-10-08T03:58:20.820Z,10.84
2022-10-08T04:00:59.281Z,10.90
2022-10-08T04:03:29.913Z,10.83
2022-10-08T04:05:58.614Z,10.75
2022-10-08T04:08:27.591Z,10.79
2022-10-08T04:10:56.070Z,10.80
2022-10-08T04:13:24.626Z,10.83
2022-10-08T04:15:52.843Z,10.85
2022-10-08T04:18:23.583Z,10.81
2022-10-08T04:20:57.400Z,10.71
2022-10-08T04:23:25.944Z,10.70
2022-10-08T04:25:54.856Z,10.56
2022-10-08T04:28:23.707Z,10.56
2022-10-08T04:31:00.393Z,10.53
2022-10-08T04:33:29.710Z,10.48
2022-10-08T04:36:00.401Z,10.48
2022-10-08T04:38:29.085Z,10.46
2022-10-08T04:41:05.886Z,10.43
2022-10-08T04:43:34.677Z,10.41
2022-10-08T04:46:03.040Z,10.38
2022-10-08T04:48:31.369Z,10.45
2022-10-08T04:51:05.772Z,10.48
2022-10-08T04:53:36.933Z,10.43
2022-10-08T04:56:11.003Z,10.39
2022-10-08T04:58:41.573Z,10.33
2022-10-08T05:01:12.609Z,10.43
2022-10-08T05:03:43.734Z,10.41
2022-10-08T05:06:14.906Z,10.49
2022-10-08T05:08:43.494Z,10.40
2022-10-08T05:11:12.712Z,10.40
2022-10-08T05:13:40.847Z,10.46
2022-10-08T05:16:11.309Z,10.43
2022-10-08T05:18:40.742Z,10.27
2022-10-08T05:21:11.570Z,10.33
2022-10-08T05:23:42.637Z,10.24
2022-10-08T05:26:15.620Z,10.20
2022-10-08T05:28:44.345Z,10.21
2022-10-08T05:31:12.770Z,10.13
2022-10-08T05:33:41.092Z,10.09
2022-10-08T05:36:11.951Z,10.12
2022-10-08T05:38:43.583Z,10.20
2022-10-08T05:41:13.855Z,10.26
2022-10-08T05:43:42.375Z,10.21
2022-10-08T05:46:10.583Z,10.22
2022-10-08T05:48:39.179Z,10.21
2022-10-08T05:51:09.142Z,10.23
2022-10-08T05:53:38.027Z,10.13
2022-10-08T05:56:09.896Z,10.06
2022-10-08T05:58:39.784Z,10.13
2022-10-08T06:01:12.007Z,10.16
2022-10-08T06:03:40.311Z,10.21
2022-10-08T06:06:10.893Z,10.09
2022-10-08T06:08:39.258Z,10.07
2022-10-08T06:11:08.871Z,10.10
2022-10-08T06:13:37.188Z,10.11
2022-10-08T06:16:10.272Z,10.08
2022-10-08T06:18:39.976Z,10.11
2022-10-08T06:21:09.914Z,10.07
2022-10-08T06:23:39.999Z,10.06
2022-10-08T06:26:10.843Z,10.13
2022-10-08T06:28:40.299Z,10.20
2022-10-08T06:31:09.284Z,10.16
2022-10-08T06:33:37.639Z,10.20
2022-10-08T06:36:06.478Z,10.25
2022-10-08T06:38:35.018Z,10.29
2022-10-08T06:41:03.191Z,10.34
2022-10-08T06:43:32.847Z,10.39
2022-10-08T06:46:05.535Z,10.52
2022-10-08T06:48:34.242Z,10.53
2022-10-08T06:51:04.571Z,10.59
2022-10-08T06:53:32.920Z,10.62
2022-10-08T06:56:02.738Z,10.60
2022-10-08T06:58:32.506Z,10.62
2022-10-08T07:01:05.305Z,10.59
2022-10-08T07:03:34.047Z,10.64
2022-10-08T07:06:02.725Z,10.63
2022-10-08T07:08:31.452Z,10.68
2022-10-08T07:11:04.866Z,10.73
2022-10-08T07:13:37.073Z,10.77
2022-10-08T07:16:06.951Z,10.81
2022-10-08T07:18:36.302Z,10.84
2022-10-08T07:21:05.814Z,10.87
2022-10-08T07:23:34.494Z,10.95
2022-10-08T07:26:04.741Z,11.02
2022-10-08T07:28:36.956Z,11.10
2022-10-08T07:31:06.598Z,11.19
2022-10-08T07:33:35.203Z,11.28
2022-10-08T07:36:11.157Z,11.34
2022-10-08T07:38:40.354Z,11.40
2022-10-08T07:41:09.745Z,11.43
2022-10-08T07:43:41.163Z,11.49
2022-10-08T07:46:10.926Z,11.54
2022-10-08T07:48:39.199Z,11.62
2022-10-08T07:51:09.692Z,11.75
2022-10-08T07:53:37.979Z,11.77
2022-10-08T07:56:06.511Z,11.89
2022-10-08T07:58:35.089Z,11.93
2022-10-08T08:01:06.773Z,12.06
2022-10-08T08:03:35.677Z,12.04
2022-10-08T08:06:04.724Z,12.12
2022-10-08T08:08:33.315Z,12.23
2022-10-08T08:11:03.349Z,12.26
2022-10-08T08:13:36.755Z,12.38
2022-10-08T08:16:08.748Z,12.45
2022-10-08T08:18:39.189Z,12.44
2022-10-08T08:21:09.736Z,12.61
2022-10-08T08:23:40.914Z,12.65
2022-10-08T08:26:11.511Z,12.81
2022-10-08T08:28:40.333Z,12.92
2022-10-08T08:31:11.726Z,12.92
2022-10-08T08:33:40.104Z,12.90
2022-10-08T08:36:08.589Z,13.02
2022-10-08T08:38:37.723Z,13.08
2022-10-08T08:41:22.888Z,13.11
2022-10-08T08:43:58.873Z,13.16
2022-10-08T08:46:32.875Z,13.18
2022-10-08T08:49:06.128Z,13.27
2022-10-08T08:51:34.668Z,13.31
2022-10-08T08:54:05.348Z,13.44
2022-10-08T08:56:34.740Z,13.40
2022-10-08T08:59:09.337Z,13.52
2022-10-08T09:01:44.490Z,13.60
2022-10-08T09:04:21.974Z,13.73
2022-10-08T09:06:53.561Z,13.77
2022-10-08T09:09:28.370Z,13.79
2022-10-08T09:11:56.979Z,13.91
2022-10-08T09:14:35.848Z,14.00
2022-10-08T09:17:16.082Z,13.96
2022-10-08T09:19:44.990Z,13.95
2022-10-08T09:22:22.012Z,14.00
2022-10-08T09:24:54.069Z,14.18
2022-10-08T09:27:22.369Z,14.45
2022-10-08T09:29:50.604Z,14.54
2022-10-08T09:32:22.691Z,14.73
2022-10-08T09:34:51.154Z,14.65
2022-10-08T09:37:26.058Z,14.13
2022-10-08T09:40:17.464Z,14.14
2022-10-08T09:42:48.514Z,14.52
2022-10-08T09:45:34.170Z,14.62
2022-10-08T09:48:26.096Z,14.59
2022-10-08T09:50:58.634Z,14.37
2022-10-08T09:53:31.147Z,14.19
2022-10-08T09:56:01.480Z,14.12
2022-10-08T09:58:32.529Z,14.03
2022-10-08T10:01:07.592Z,13.76
2022-10-08T10:03:38.698Z,13.56
2022-10-08T10:06:07.451Z,13.73
2022-10-08T10:08:46.392Z,14.14
2022-10-08T10:11:20.274Z,14.59
2022-10-08T10:13:50.769Z,14.96
2022-10-08T10:16:25.033Z,15.09
2022-10-08T10:18:59.139Z,15.33
2022-10-08T10:21:34.323Z,15.63
2022-10-08T10:24:17.423Z,15.77
2022-10-08T10:26:46.456Z,15.60
2022-10-08T10:29:19.130Z,15.69
2022-10-08T10:31:52.020Z,16.15
2022-10-08T10:34:25.076Z,16.52
2022-10-08T10:36:57.159Z,16.57
2022-10-08T10:39:33.670Z,16.13
2022-10-08T10:42:11.642Z,15.37
2022-10-08T10:44:53.182Z,15.55
2022-10-08T10:47:27.091Z,15.96
2022-10-08T10:50:01.150Z,16.22
2022-10-08T10:52:47.270Z,16.46
2022-10-08T10:55:23.459Z,16.92
2022-10-08T10:58:10.815Z,17.08
2022-10-08T11:00:48.794Z,17.10
2022-10-08T11:03:23.806Z,17.22
2022-10-08T11:06:14.612Z,17.05
2022-10-08T11:08:48.574Z,16.85
2022-10-08T11:11:32.256Z,16.65
2022-10-08T11:14:13.437Z,16.31
2022-10-08T11:16:51.699Z,16.45
2022-10-08T11:19:35.117Z,16.49
2022-10-08T11:22:11.557Z,16.62
2022-10-08T11:24:53.999Z,16.70
2022-10-08T11:27:33.858Z,16.67
2022-10-08T11:30:07.296Z,16.79
2022-10-08T11:32:36.339Z,17.14
2022-10-08T11:35:20.910Z,16.82
2022-10-08T11:37:56.150Z,16.74
2022-10-08T11:40:31.044Z,16.56
2022-10-08T11:43:06.435Z,15.84
2022-10-08T11:45:37.349Z,15.23
2022-10-08T11:48:31.680Z,15.77
2022-10-08T11:51:38.444Z,16.25
2022-10-08T11:54:12.503Z,16.60
2022-10-08T11:56:43.739Z,16.69
2022-10-08T11:59:32.910Z,16.84
2022-10-08T12:02:03.518Z,16.51
2022-10-08T12:04:35.406Z,16.61
2022-10-08T12:07:27.122Z,16.85
2022-10-08T12:10:22.928Z,17.04
2022-10-08T12:13:27.054Z,16.88
2022-10-08T12:16:04.838Z,16.58
2022-10-08T12:18:44.441Z,16.43
2022-10-08T12:21:54.570Z,16.92
2022-10-08T12:24:55.405Z,17.31
2022-10-08T12:27:33.807Z,17.30
2022-10-08T12:30:04.606Z,17.41
2022-10-08T12:32:52.969Z,17.56
2022-10-08T12:35:24.189Z,17.95
2022-10-08T12:38:19.479Z,17.63
2022-10-08T12:40:56.604Z,17.79
2022-10-08T12:43:35.859Z,17.23
2022-10-08T12:46:17.673Z,17.60
2022-10-08T12:48:51.809Z,17.87
2022-10-08T12:51:26.135Z,18.17
2022-10-08T12:53:55.347Z,17.41
2022-10-08T12:56:28.289Z,17.31
2022-10-08T12:59:00.357Z,17.24
2022-10-08T13:01:29.146Z,16.54
2022-10-08T13:04:18.830Z,16.45
2022-10-08T13:06:47.591Z,16.02
2022-10-08T13:09:28.315Z,16.07
2022-10-08T13:12:03.175Z,16.52
2022-10-08T13:14:35.354Z,17.02
2022-10-08T13:17:05.269Z,17.62
2022-10-08T13:19:36.047Z,18.00
2022-10-08T13:22:07.963Z,17.85
2022-10-08T13:24:41.518Z,18.08
2022-10-08T13:27:25.386Z,17.74
2022-10-08T13:29:55.775Z,17.74
2022-10-08T13:32:26.020Z,17.93
2022-10-08T13:34:57.140Z,17.49
2022-10-08T13:37:31.622Z,17.26
2022-10-08T13:40:02.081Z,17.33
2022-10-08T13:42:33.916Z,17.34
2022-10-08T13:45:06.177Z,17.32
2022-10-08T13:47:34.374Z,17.21
2022-10-08T13:50:02.558Z,17.37
2022-10-08T13:52:32.920Z,17.37
2022-10-08T13:55:03.308Z,17.25
2022-10-08T13:57:32.254Z,17.17
2022-10-08T14:00:00.485Z,17.35
2022-10-08T14:02:30.042Z,17.28
2022-10-08T14:04:58.365Z,17.07
2022-10-08T14:07:30.292Z,17.07
2022-10-08T14:10:01.595Z,17.30
2022-10-08T14:12:33.129Z,17.49
2022-10-08T14:15:01.724Z,17.34
2022-10-08T14:17:32.621Z,17.51
2022-10-08T14:20:00.865Z,17.60
2022-10-08T14:22:29.129Z,16.52
2022-10-08T14:24:57.261Z,16.36
2022-10-08T14:27:25.534Z,16.44
2022-10-08T14:29:54.255Z,17.15
2022-10-08T14:32:22.436Z,17.58
2022-10-08T14:34:52.376Z,18.19
2022-10-08T14:37:20.656Z,18.80
2022-10-08T14:39:49.045Z,18.85
2022-10-08T14:42:17.238Z,18.94
2022-10-08T14:44:46.086Z,19.82
2022-10-08T14:47:14.290Z,19.24
2022-10-08T14:49:42.433Z,19.52
2022-10-08T14:52:12.063Z,19.31
2022-10-08T14:54:42.627Z,19.39
2022-10-08T14:57:10.922Z,19.40
2022-10-08T14:59:40.375Z,19.15
2022-10-08T15:02:10.810Z,18.92
2022-10-08T15:04:39.365Z,18.39
2022-10-08T15:07:07.563Z,17.51
2022-10-08T15:09:40.472Z,16.51
2022-10-08T15:12:08.867Z,15.95
2022-10-08T15:14:38.437Z,15.69
2022-10-08T15:17:06.829Z,15.26
2022-10-08T15:19:35.196Z,15.15
2022-10-08T15:22:03.454Z,15.08
2022-10-08T15:24:31.730Z,14.89
2022-10-08T15:27:01.296Z,14.79
2022-10-08T15:29:29.557Z,14.59
2022-10-08T15:31:57.930Z,14.53
2022-10-08T15:34:26.184Z,14.48
2022-10-08T15:36:55.835Z,14.36
2022-10-08T15:39:24.454Z,14.32
2022-10-08T15:41:54.417Z,14.24
2022-10-08T15:44:25.785Z,14.17
2022-10-08T15:46:59.565Z,14.19
2022-10-08T15:49:31.546Z,14.12
2022-10-08T15:52:00.564Z,14.12
2022-10-08T15:54:29.899Z,14.05
2022-10-08T15:56:58.352Z,14.00
2022-10-08T15:59:27.949Z,13.99
2022-10-08T16:01:56.238Z,13.91
2022-10-08T16:04:24.491Z,13.94
2022-10-08T16:06:52.964Z,13.89
2022-10-08T16:09:23.653Z,13.80
2022-10-08T16:11:52.936Z,13.78
2022-10-08T16:14:22.849Z,13.69
2022-10-08T16:16:53.983Z,13.66
2022-10-08T16:19:24.214Z,13.62
2022-10-08T16:21:54.408Z,13.53
2022-10-08T16:24:23.248Z,13.46
2022-10-08T16:26:51.638Z,13.43
2022-10-08T16:29:20.606Z,13.39
2022-10-08T16:31:49.328Z,13.26
2022-10-08T16:34:21.189Z,13.16
2022-10-08T16:36:49.894Z,13.11
2022-10-08T16:39:20.830Z,13.11
2022-10-08T16:41:49.571Z,13.06
2022-10-08T16:44:19.840Z,13.00
2022-10-08T16:46:50.745Z,12.91
2022-10-08T16:49:25.424Z,12.85
2022-10-08T16:51:56.311Z,12.72
2022-10-08T16:54:24.530Z,12.58
2022-10-08T16:56:53.765Z,12.45
2022-10-08T16:59:24.432Z,12.35
2022-10-08T17:01:54.341Z,12.27
2022-10-08T17:04:25.073Z,12.19
2022-10-08T17:06:54.001Z,12.10
2022-10-08T17:09:22.213Z,12.07
2022-10-08T17:11:50.530Z,12.03
2022-10-08T17:14:18.951Z,12.00
2022-10-08T17:16:47.304Z,11.88
2022-10-08T17:19:15.583Z,11.74
2022-10-08T17:21:45.216Z,11.53
2022-10-08T17:24:13.678Z,11.51
2022-10-08T17:26:43.044Z,11.42
2022-10-08T17:29:12.864Z,11.28
2022-10-08T17:31:41.553Z,11.22
2022-10-08T17:34:11.460Z,11.16
2022-10-08T17:36:43.923Z,11.09
2022-10-08T17:39:15.146Z,11.03
2022-10-08T17:41:44.306Z,10.95
2022-10-08T17:44:13.094Z,10.92
2022-10-08T17:46:45.451Z,10.80
2022-10-08T17:49:14.988Z,10.77
2022-10-08T17:51:43.499Z,10.69
2022-10-08T17:54:15.819Z,10.62
2022-10-08T17:56:44.195Z,10.53
2022-10-08T17:59:14.830Z,10.48
2022-10-08T18:01:45.391Z,10.45
2022-10-08T18:04:16.904Z,10.39
2022-10-08T18:06:47.054Z,10.31
2022-10-08T18:09:18.468Z,10.31
2022-10-08T18:11:50.903Z,10.24
2022-10-08T18:14:19.714Z,10.22
2022-10-08T18:16:48.810Z,10.16
2022-10-08T18:19:18.107Z,10.10
2022-10-08T18:21:48.957Z,10.08
2022-10-08T18:24:19.272Z,9.94
2022-10-08T18:26:47.823Z,9.96
2022-10-08T18:29:16.147Z,9.88
2022-10-08T18:31:46.520Z,9.90
2022-10-08T18:34:16.895Z,9.90
2022-10-08T18:36:46.290Z,9.89
2022-10-08T18:39:16.489Z,9.86
2022-10-08T18:41:47.691Z,9.81
2022-10-08T18:44:18.326Z,9.77
2022-10-08T18:46:47.409Z,9.79
2022-10-08T18:49:17.828Z,9.75
2022-10-08T18:51:46.495Z,9.69
2022-10-08T18:54:14.737Z,9.67
2022-10-08T18:56:43.669Z,9.66
2022-10-08T18:59:16.435Z,9.56
2022-10-08T19:01:47.100Z,9.51
2022-10-08T19:04:17.219Z,9.48
2022-10-08T19:06:47.585Z,9.49
2022-10-08T19:09:16.313Z,9.47
2022-10-08T19:11:46.675Z,9.44
2022-10-08T19:14:17.627Z,9.45
2022-10-08T19:16:46.475Z,9.40
2022-10-08T19:19:16.542Z,9.34
2022-10-08T19:21:44.975Z,9.33
2022-10-08T19:24:15.286Z,9.29
2022-10-08T19:26:44.067Z,9.25
2022-10-08T19:29:17.210Z,9.27
2022-10-08T19:31:47.654Z,9.25
2022-10-08T19:34:18.869Z,9.20
2022-10-08T19:36:47.971Z,9.10
2022-10-08T19:39:17.391Z,9.10
2022-10-08T19:41:46.535Z,9.08
2022-10-08T19:44:16.616Z,9.09
2022-10-08T19:46:45.441Z,9.07
2022-10-08T19:49:14.362Z,9.03
2022-10-08T19:51:45.873Z,9.01
2022-10-08T19:54:14.234Z,8.95
2022-10-08T19:56:44.750Z,8.87
2022-10-08T19:59:13.755Z,8.86
2022-10-08T20:01:44.920Z,8.83
2022-10-08T20:04:14.102Z,8.85
2022-10-08T20:06:42.990Z,8.82
2022-10-08T20:09:13.206Z,8.82
2022-10-08T20:11:42.387Z,8.75
2022-10-08T20:14:11.505Z,8.74
2022-10-08T20:16:41.869Z,8.73
2022-10-08T20:19:16.703Z,8.76
2022-10-08T20:21:45.115Z,8.74
2022-10-08T20:24:14.068Z,8.70
2022-10-08T20:26:43.814Z,8.71
2022-10-08T20:29:13.589Z,8.78
2022-10-08T20:31:45.671Z,8.87
2022-10-08T20:34:17.869Z,8.87
2022-10-08T20:36:47.199Z,8.81
2022-10-08T20:39:16.559Z,8.77
2022-10-08T20:41:44.808Z,8.68
2022-10-08T20:44:13.510Z,8.65
2022-10-08T20:46:42.040Z,8.59
2022-10-08T20:49:12.413Z,8.59
2022-10-08T20:51:43.702Z,8.62
2022-10-08T20:54:13.909Z,8.58
2022-10-08T20:56:43.229Z,8.58
2022-10-08T20:59:14.886Z,8.56
2022-10-08T21:01:43.605Z,8.55
2022-10-08T21:04:11.921Z,8.49
2022-10-08T21:06:43.009Z,8.39
2022-10-08T21:09:11.905Z,8.35
2022-10-08T21:11:40.385Z,8.34
2022-10-08T21:14:16.084Z,8.38
2022-10-08T21:16:44.900Z,8.29
2022-10-08T21:19:15.172Z,8.22
2022-10-08T21:21:44.643Z,8.19
2022-10-08T21:24:12.908Z,8.18
2022-10-08T21:26:42.991Z,8.33
2022-10-08T21:29:13.083Z,8.34
2022-10-08T21:31:42.361Z,8.36
2022-10-08T21:34:12.305Z,8.38
2022-10-08T21:36:41.850Z,8.28
2022-10-08T21:39:15.861Z,8.22
2022-10-08T21:41:44.427Z,8.11
2022-10-08T21:44:13.124Z,8.07
2022-10-08T21:46:43.065Z,8.07
2022-10-08T21:49:14.047Z,8.05
2022-10-08T21:51:42.644Z,8.06
2022-10-08T21:54:12.464Z,8.05
2022-10-08T21:56:42.336Z,8.04
2022-10-08T21:59:13.351Z,8.11
2022-10-08T22:01:43.609Z,8.17
2022-10-08T22:04:13.796Z,8.06
2022-10-08T22:06:43.488Z,8.00
2022-10-08T22:09:17.319Z,8.11
2022-10-08T22:11:45.852Z,8.03
2022-10-08T22:14:14.530Z,8.02
2022-10-08T22:16:42.963Z,8.00
2022-10-08T22:19:11.283Z,7.89
2022-10-08T22:21:39.478Z,7.83
2022-10-08T22:24:08.325Z,7.77
2022-10-08T22:26:40.486Z,7.77
2022-10-08T22:29:09.287Z,7.72
2022-10-08T22:31:37.958Z,7.64
2022-10-08T22:34:06.823Z,7.64
2022-10-08T22:36:38.910Z,7.73
2022-10-08T22:39:07.713Z,7.79
2022-10-08T22:41:37.826Z,7.91
2022-10-08T22:44:06.484Z,7.92
2022-10-08T22:46:38.077Z,7.87
2022-10-08T22:49:08.440Z,7.82
2022-10-08T22:51:37.294Z,7.82
2022-10-08T22:54:05.858Z,7.89
2022-10-08T22:56:34.456Z,7.74
2022-10-08T22:59:04.037Z,7.70
2022-10-08T23:01:32.468Z,7.72
2022-10-08T23:04:00.723Z,7.65
2022-10-08T23:06:31.284Z,7.64
2022-10-08T23:09:02.099Z,7.65
2022-10-08T23:11:31.910Z,7.61
2022-10-08T23:14:01.080Z,7.69
2022-10-08T23:16:32.584Z,7.78
2022-10-08T23:19:02.289Z,7.70
2022-10-08T23:21:30.973Z,7.63
2022-10-08T23:23:59.874Z,7.60
2022-10-08T23:26:28.979Z,7.62
2022-10-08T23:28:59.074Z,7.57
2022-10-08T23:31:28.714Z,7.49
2022-10-08T23:33:58.928Z,7.50
2022-10-08T23:36:28.704Z,7.48
2022-10-08T23:38:57.546Z,7.41
2022-10-08T23:41:26.383Z,7.40
2022-10-08T23:43:55.719Z,7.39
2022-10-08T23:46:26.301Z,7.34
2022-10-08T23:48:55.304Z,7.40
2022-10-08T23:51:27.952Z,7.34
2022-10-08T23:53:56.650Z,7.38
2022-10-08T23:56:25.257Z,7.31
2022-10-08T23:58:53.704Z,7.30
